createdAt,value
2019-04-21T00:01:24.343Z,17.46
2019-04-21T00:04:09.772Z,17.46
2019-04-21T00:06:48.147Z,17.52
2019-04-21T00:12:02.500Z,17.67
2019-04-21T00:14:27.626Z,17.77
2019-04-21T00:16:57.516Z,17.81
2019-04-21T00:19:33.969Z,17.88
2019-04-21T00:22:19.104Z,18.10
2019-04-21T00:24:54.352Z,18.79
2019-04-21T00:27:31.013Z,18.78
2019-04-21T00:30:12.125Z,18.83
2019-04-21T00:32:38.138Z,19.13
2019-04-21T00:35:04.751Z,19.41
2019-04-21T00:37:54.269Z,19.53
2019-04-21T00:40:27.685Z,19.48
2019-04-21T00:43:18.137Z,19.43
2019-04-21T00:45:44.854Z,19.25
2019-04-21T00:48:32.945Z,19.08
2019-04-21T00:51:17.699Z,18.88
2019-04-21T00:53:51.968Z,18.83
2019-04-21T00:56:21.927Z,18.79
2019-04-21T00:58:53.424Z,18.90
2019-04-21T01:01:50.791Z,18.89
2019-04-21T01:04:23.492Z,18.94
2019-04-21T01:06:54.448Z,18.87
2019-04-21T01:09:30.391Z,18.96
2019-04-21T01:12:07.810Z,19.00
2019-04-21T01:14:51.959Z,19.12
2019-04-21T01:17:20.262Z,19.13
2019-04-21T01:19:43.904Z,19.10
2019-04-21T01:22:04.890Z,19.08
2019-04-21T01:24:42.947Z,19.05
2019-04-21T01:27:21.424Z,19.13
2019-04-21T01:30:05.665Z,19.15
2019-04-21T01:32:42.711Z,19.11
2019-04-21T01:35:14.733Z,19.15
2019-04-21T01:37:49.614Z,19.15
2019-04-21T01:40:29.794Z,19.13
2019-04-21T01:43:31.529Z,19.08
2019-04-21T01:45:59.664Z,18.99
2019-04-21T01:48:34.207Z,18.96
2019-04-21T01:51:08.796Z,18.96
2019-04-21T01:54:06.043Z,18.97
2019-04-21T01:56:53.878Z,18.92
2019-04-21T01:59:20.440Z,18.88
2019-04-21T02:02:08.120Z,18.86
2019-04-21T02:04:42.907Z,18.80
2019-04-21T02:07:13.008Z,18.88
2019-04-21T02:09:44.294Z,18.80
2019-04-21T02:12:20.532Z,18.74
2019-04-21T02:15:03.307Z,18.78
2019-04-21T02:17:43.441Z,18.82
2019-04-21T02:19:55.225Z,18.81
2019-04-21T02:22:46.187Z,18.81
2019-04-21T02:25:26.872Z,18.74
2019-04-21T02:27:42.969Z,18.72
2019-04-21T02:30:29.415Z,18.73
2019-04-21T02:33:19.576Z,18.69
2019-04-21T02:35:58.062Z,18.54
2019-04-21T02:38:29.773Z,18.44
2019-04-21T02:40:46.486Z,18.33
2019-04-21T02:46:02.071Z,18.06
2019-04-21T02:48:35.017Z,18.07
2019-04-21T02:50:58.034Z,18.05
2019-04-21T02:59:17.028Z,18.10
2019-04-21T03:02:27.161Z,18.06
2019-04-21T03:05:11.667Z,18.04
2019-04-21T03:07:40.759Z,18.01
2019-04-21T03:10:20.642Z,18.02
2019-04-21T03:12:44.141Z,18.01
2019-04-21T03:15:21.345Z,17.93
2019-04-21T03:18:00.220Z,17.90
2019-04-21T03:20:39.968Z,17.89
2019-04-21T03:23:07.755Z,17.89
2019-04-21T03:28:15.700Z,17.89
2019-04-21T03:36:41.415Z,17.69
2019-04-21T03:38:47.334Z,17.53
2019-04-21T03:44:02.960Z,17.35
2019-04-21T03:46:37.335Z,17.30
2019-04-21T03:49:10.609Z,17.14
2019-04-21T03:51:48.753Z,17.16
2019-04-21T03:54:41.493Z,17.08
2019-04-21T03:57:21.657Z,16.90
2019-04-21T04:00:00.786Z,16.85
2019-04-21T04:02:44.834Z,16.80
2019-04-21T04:07:59.101Z,16.74
2019-04-21T04:13:14.451Z,16.87
2019-04-21T04:15:49.021Z,16.81
2019-04-21T04:18:17.626Z,16.63
2019-04-21T04:20:53.434Z,16.36
2019-04-21T04:23:37.328Z,16.39
2019-04-21T04:25:57.746Z,16.26
2019-04-21T04:31:18.053Z,16.07
2019-04-21T04:33:51.919Z,15.91
2019-04-21T04:49:47.981Z,15.33
2019-04-21T04:52:31.331Z,15.27
2019-04-21T04:57:47.100Z,15.16
2019-04-21T05:00:14.334Z,15.10
2019-04-21T05:02:37.585Z,14.98
2019-04-21T05:07:42.858Z,14.70
2019-04-21T05:12:45.049Z,14.52
2019-04-21T05:17:50.842Z,14.44
2019-04-21T05:20:44.564Z,14.30
2019-04-21T05:22:53.209Z,14.33
2019-04-21T05:25:23.084Z,14.29
2019-04-21T05:27:56.935Z,14.23
2019-04-21T05:30:50.919Z,14.18
2019-04-21T05:33:45.986Z,14.17
2019-04-21T05:36:30.909Z,14.10
2019-04-21T05:39:18.797Z,14.04
2019-04-21T05:41:43.187Z,13.96
2019-04-21T05:44:37.966Z,13.94
2019-04-21T05:47:15.922Z,13.93
2019-04-21T05:50:02.938Z,13.91
2019-04-21T05:52:47.655Z,13.92
2019-04-21T05:58:06.029Z,13.83
2019-04-21T06:01:03.501Z,13.72
2019-04-21T06:03:16.494Z,13.71
2019-04-21T06:06:05.757Z,13.83
2019-04-21T06:08:25.516Z,13.76
2019-04-21T06:11:05.408Z,13.85
2019-04-21T06:13:42.825Z,13.98
2019-04-21T06:16:07.315Z,13.95
2019-04-21T06:18:55.350Z,14.05
2019-04-21T06:21:19.950Z,14.30
2019-04-21T06:23:45.641Z,14.48
2019-04-21T06:26:50.465Z,14.87
2019-04-21T06:28:56.806Z,15.39
2019-04-21T06:34:09.656Z,18.03
2019-04-21T06:37:34.850Z,19.23
2019-04-21T06:40:06.396Z,19.68
2019-04-21T06:42:18.580Z,20.32
2019-04-21T06:44:57.627Z,21.95
2019-04-21T06:47:47.432Z,23.33
2019-04-21T06:50:07.611Z,24.86
2019-04-21T06:52:57.208Z,26.58
2019-04-21T06:55:13.865Z,27.88
2019-04-21T06:57:53.058Z,27.05
2019-04-21T07:00:18.453Z,27.59
2019-04-21T07:03:08.451Z,29.03
2019-04-21T07:05:35.824Z,28.81
2019-04-21T07:08:23.275Z,29.41
2019-04-21T07:10:37.185Z,30.77
2019-04-21T07:13:11.887Z,31.22
2019-04-21T07:15:56.449Z,31.91
2019-04-21T07:18:27.592Z,32.71
2019-04-21T07:20:56.502Z,33.25
2019-04-21T07:23:32.274Z,34.22
2019-04-21T07:26:05.272Z,34.80
2019-04-21T07:28:46.039Z,35.17
2019-04-21T07:31:17.612Z,36.04
2019-04-21T07:33:53.415Z,36.49
2019-04-21T07:36:29.162Z,36.93
2019-04-21T07:38:51.445Z,37.79
2019-04-21T07:41:20.020Z,38.10
2019-04-21T07:43:59.181Z,38.59
2019-04-21T07:46:28.933Z,38.66
2019-04-21T07:49:21.023Z,39.46
2019-04-21T07:55:05.619Z,40.16
2019-04-21T07:57:27.693Z,40.72
2019-04-21T08:00:15.036Z,41.17
2019-04-21T08:02:40.367Z,41.36
2019-04-21T08:05:20.586Z,40.46
2019-04-21T08:07:54.203Z,38.71
2019-04-21T08:10:21.202Z,39.04
2019-04-21T08:12:55.600Z,39.41
2019-04-21T08:15:40.058Z,39.55
2019-04-21T08:18:07.817Z,39.43
2019-04-21T08:21:15.253Z,41.07
2019-04-21T08:23:41.495Z,40.04
2019-04-21T08:26:17.415Z,41.56
2019-04-21T08:29:07.763Z,40.51
2019-04-21T08:31:34.434Z,41.01
2019-04-21T08:34:07.692Z,41.72
2019-04-21T08:36:35.612Z,40.85
2019-04-21T08:39:08.811Z,39.53
2019-04-21T08:41:43.971Z,38.11
2019-04-21T08:44:24.287Z,37.00
2019-04-21T08:49:26.242Z,37.22
2019-04-21T08:52:09.924Z,35.77
2019-04-21T08:54:43.496Z,35.57
2019-04-21T08:57:46.402Z,36.16
2019-04-21T09:00:56.592Z,39.16
2019-04-21T09:03:16.225Z,38.35
2019-04-21T09:05:45.124Z,36.29
2019-04-21T09:08:19.529Z,36.25
2019-04-21T09:10:55.871Z,34.51
2019-04-21T09:13:25.132Z,33.70
2019-04-21T09:15:58.057Z,35.00
2019-04-21T09:18:28.423Z,35.55
2019-04-21T09:21:13.574Z,36.37
2019-04-21T09:23:44.920Z,36.14
2019-04-21T09:26:28.291Z,33.71
2019-04-21T09:28:49.433Z,34.41
2019-04-21T09:31:11.918Z,36.19
2019-04-21T09:33:48.807Z,37.50
2019-04-21T09:36:21.622Z,36.71
2019-04-21T09:39:01.199Z,37.73
2019-04-21T09:41:29.756Z,39.40
2019-04-21T09:44:08.769Z,37.48
2019-04-21T09:46:49.753Z,38.25
2019-04-21T09:49:20.198Z,39.14
2019-04-21T09:51:48.320Z,40.69
2019-04-21T09:54:26.556Z,41.24
2019-04-21T09:57:01.618Z,38.99
2019-04-21T09:59:35.557Z,38.42
2019-04-21T10:02:13.338Z,38.66
2019-04-21T10:04:38.261Z,40.94
2019-04-21T10:07:23.370Z,42.47
2019-04-21T10:09:47.908Z,42.95
2019-04-21T10:12:33.375Z,43.71
2019-04-21T10:15:08.579Z,42.66
2019-04-21T10:17:51.959Z,41.41
2019-04-21T10:20:24.588Z,37.25
2019-04-21T10:22:59.388Z,35.50
2019-04-21T10:25:34.658Z,34.61
2019-04-21T10:28:07.882Z,33.66
2019-04-21T10:30:40.755Z,34.37
2019-04-21T10:33:14.337Z,34.33
2019-04-21T10:35:46.832Z,32.88
2019-04-21T10:38:28.208Z,33.93
2019-04-21T10:40:53.677Z,34.12
2019-04-21T10:43:27.455Z,34.41
2019-04-21T10:46:01.250Z,35.22
2019-04-21T10:48:35.068Z,33.87
2019-04-21T10:51:07.914Z,32.67
2019-04-21T10:53:42.556Z,32.19
2019-04-21T10:56:25.104Z,32.68
2019-04-21T10:58:54.168Z,33.34
2019-04-21T11:01:29.531Z,33.32
2019-04-21T11:04:24.879Z,35.20
2019-04-21T11:06:59.433Z,34.34
2019-04-21T11:09:56.242Z,34.04
2019-04-21T11:12:28.484Z,34.37
2019-04-21T11:15:01.155Z,34.17
2019-04-21T11:17:34.433Z,33.91
2019-04-21T11:20:08.805Z,34.36
2019-04-21T11:22:41.673Z,34.20
2019-04-21T11:25:14.178Z,36.01
2019-04-21T11:27:47.030Z,33.49
2019-04-21T11:30:20.034Z,31.62
2019-04-21T11:32:53.145Z,31.32
2019-04-21T11:35:27.626Z,30.43
2019-04-21T11:38:08.381Z,29.82
2019-04-21T11:40:38.081Z,28.82
2019-04-21T11:43:11.469Z,28.92
2019-04-21T11:45:44.418Z,29.79
2019-04-21T11:48:28.201Z,30.76
2019-04-21T11:51:01.371Z,30.42
2019-04-21T11:53:34.780Z,29.53
2019-04-21T11:56:07.382Z,29.45
2019-04-21T11:58:39.658Z,29.82
2019-04-21T12:01:11.811Z,29.43
2019-04-21T12:03:45.350Z,28.51
2019-04-21T12:06:17.668Z,27.88
2019-04-21T12:08:52.834Z,27.27
2019-04-21T12:11:25.218Z,27.27
2019-04-21T12:14:00.311Z,27.25
2019-04-21T12:16:33.153Z,26.98
2019-04-21T12:19:05.470Z,26.73
2019-04-21T12:21:50.701Z,26.68
2019-04-21T12:24:13.238Z,26.65
2019-04-21T12:26:47.765Z,27.53
2019-04-21T12:29:20.848Z,28.23
2019-04-21T12:32:16.135Z,28.44
2019-04-21T12:34:50.509Z,27.86
2019-04-21T12:37:24.715Z,27.91
2019-04-21T12:39:58.875Z,28.15
2019-04-21T12:42:32.881Z,28.13
2019-04-21T12:45:05.877Z,27.82
2019-04-21T12:47:38.040Z,28.10
2019-04-21T12:50:13.038Z,28.15
2019-04-21T12:52:45.375Z,28.38
2019-04-21T12:55:17.803Z,28.16
2019-04-21T12:58:01.301Z,28.71
2019-04-21T13:00:33.626Z,28.64
2019-04-21T13:03:06.015Z,29.35
2019-04-21T13:05:41.477Z,29.81
2019-04-21T13:08:15.520Z,30.00
2019-04-21T13:10:48.527Z,29.04
2019-04-21T13:13:21.944Z,29.59
2019-04-21T13:15:55.556Z,29.85
2019-04-21T13:18:29.145Z,29.81
2019-04-21T13:21:05.198Z,28.88
2019-04-21T13:23:37.015Z,28.22
2019-04-21T13:26:10.019Z,27.56
2019-04-21T13:28:44.556Z,27.31
2019-04-21T13:31:18.085Z,27.40
2019-04-21T13:33:50.513Z,27.26
2019-04-21T13:36:23.427Z,27.19
2019-04-21T13:39:42.698Z,26.76
2019-04-21T13:41:56.736Z,26.30
2019-04-21T13:44:21.330Z,25.97
2019-04-21T13:46:54.564Z,25.95
2019-04-21T13:49:27.382Z,25.72
2019-04-21T13:52:02.549Z,25.30
2019-04-21T13:54:35.677Z,25.57
2019-04-21T13:57:08.338Z,26.11
2019-04-21T13:59:42.211Z,26.35
2019-04-21T14:02:16.370Z,26.59
2019-04-21T14:04:51.661Z,26.81
2019-04-21T14:07:26.048Z,26.84
2019-04-21T14:10:06.306Z,27.18
2019-04-21T14:12:42.659Z,26.93
2019-04-21T14:15:20.130Z,27.17
2019-04-21T14:17:53.050Z,26.68
2019-04-21T14:20:27.046Z,26.62
2019-04-21T14:23:13.742Z,26.73
2019-04-21T14:25:35.547Z,26.72
2019-04-21T14:28:08.131Z,26.48
2019-04-21T14:30:40.760Z,26.87
2019-04-21T14:33:16.344Z,27.09
2019-04-21T14:35:48.522Z,26.87
2019-04-21T14:38:20.780Z,26.89
2019-04-21T14:40:54.323Z,27.21
2019-04-21T14:43:27.722Z,27.22
2019-04-21T14:46:09.069Z,27.06
2019-04-21T14:49:03.854Z,26.41
2019-04-21T14:51:47.494Z,26.60
2019-04-21T14:54:40.456Z,27.07
2019-04-21T14:57:13.566Z,26.44
2019-04-21T14:59:49.040Z,27.34
2019-04-21T15:02:22.306Z,27.87
2019-04-21T15:04:55.658Z,28.15
2019-04-21T15:07:30.628Z,28.45
2019-04-21T15:10:11.553Z,28.76
2019-04-21T15:12:38.173Z,28.55
2019-04-21T15:15:11.949Z,28.55
2019-04-21T15:17:46.358Z,28.66
2019-04-21T15:20:20.231Z,28.66
2019-04-21T15:22:56.548Z,28.40
2019-04-21T15:25:30.090Z,28.40
2019-04-21T15:28:04.939Z,28.07
2019-04-21T15:30:38.605Z,28.07
2019-04-21T15:33:12.710Z,27.78
2019-04-21T15:35:47.012Z,27.55
2019-04-21T15:38:20.142Z,26.99
2019-04-21T15:40:57.133Z,26.60
2019-04-21T15:43:26.598Z,25.96
2019-04-21T15:45:58.850Z,25.91
2019-04-21T15:48:30.938Z,25.73
2019-04-21T15:51:08.449Z,25.41
2019-04-21T15:53:41.814Z,25.47
2019-04-21T15:56:36.207Z,24.98
2019-04-21T15:59:32.592Z,24.59
2019-04-21T16:02:24.598Z,24.25
2019-04-21T16:04:56.951Z,24.19
2019-04-21T16:07:29.877Z,24.14
2019-04-21T16:10:07.002Z,24.26
2019-04-21T16:12:41.016Z,24.48
2019-04-21T16:15:30.377Z,24.46
2019-04-21T16:18:08.352Z,24.88
2019-04-21T16:20:41.856Z,24.82
2019-04-21T16:23:14.953Z,24.29
2019-04-21T16:25:50.762Z,23.07
2019-04-21T16:28:23.824Z,22.27
2019-04-21T16:30:56.205Z,21.77
2019-04-21T16:33:34.561Z,21.44
2019-04-21T16:36:09.602Z,21.20
2019-04-21T16:38:43.864Z,21.00
2019-04-21T16:41:18.524Z,20.92
2019-04-21T16:43:51.361Z,20.76
2019-04-21T16:46:23.498Z,20.61
2019-04-21T16:48:55.917Z,20.57
2019-04-21T16:51:28.512Z,20.61
2019-04-21T16:54:06.031Z,20.71
2019-04-21T16:56:43.970Z,20.89
2019-04-21T16:59:24.460Z,21.16
2019-04-21T17:01:56.680Z,21.44
2019-04-21T17:04:28.836Z,21.62
2019-04-21T17:07:01.000Z,21.66
2019-04-21T17:09:34.692Z,21.70
2019-04-21T17:12:10.389Z,21.75
2019-04-21T17:14:55.583Z,21.76
2019-04-21T17:17:38.509Z,21.74
2019-04-21T17:19:52.596Z,21.77
2019-04-21T17:22:25.668Z,21.95
2019-04-21T17:24:58.270Z,22.03
2019-04-21T17:27:31.225Z,22.25
2019-04-21T17:30:04.343Z,22.46
2019-04-21T17:32:43.314Z,22.57
2019-04-21T17:35:12.405Z,22.74
2019-04-21T17:37:45.777Z,22.56
2019-04-21T17:40:26.163Z,22.34
2019-04-21T17:43:05.147Z,22.20
2019-04-21T17:45:32.999Z,22.17
2019-04-21T17:48:10.474Z,22.10
2019-04-21T17:50:59.164Z,22.13
2019-04-21T17:53:50.052Z,22.00
2019-04-21T17:56:46.372Z,22.08
2019-04-21T17:59:17.682Z,21.80
2019-04-21T18:01:47.224Z,21.62
2019-04-21T18:04:24.317Z,21.43
2019-04-21T18:07:08.697Z,21.30
2019-04-21T18:09:56.492Z,21.08
2019-04-21T18:12:26.243Z,20.97
2019-04-21T18:14:53.645Z,20.81
2019-04-21T18:17:18.484Z,20.71
2019-04-21T18:19:53.136Z,20.41
2019-04-21T18:22:41.757Z,20.35
2019-04-21T18:25:29.581Z,20.21
2019-04-21T18:27:50.559Z,20.06
2019-04-21T18:30:48.751Z,20.04
2019-04-21T18:33:27.370Z,20.01
2019-04-21T18:36:25.383Z,19.96
2019-04-21T18:39:23.379Z,19.88
2019-04-21T18:42:04.870Z,19.82
2019-04-21T18:45:34.382Z,19.74
2019-04-21T18:47:59.205Z,19.68
2019-04-21T18:50:45.975Z,19.63
2019-04-21T18:53:35.202Z,19.58
2019-04-21T18:56:00.375Z,19.58
2019-04-21T18:58:28.391Z,19.57
2019-04-21T19:01:07.580Z,19.55
2019-04-21T19:03:41.074Z,19.51
2019-04-21T19:06:14.595Z,19.35
2019-04-21T19:09:05.706Z,19.23
2019-04-21T19:11:35.922Z,19.17
2019-04-21T19:14:32.259Z,18.99
2019-04-21T19:17:11.069Z,18.97
2019-04-21T19:22:04.373Z,18.81
2019-04-21T19:24:45.706Z,18.72
2019-04-21T19:27:18.879Z,18.72
2019-04-21T19:29:51.907Z,18.60
2019-04-21T19:34:41.349Z,18.48
2019-04-21T19:37:18.362Z,18.43
2019-04-21T19:40:00.597Z,18.36
2019-04-21T19:42:32.293Z,18.24
2019-04-21T19:45:13.740Z,18.25
2019-04-21T19:47:49.975Z,18.22
2019-04-21T19:50:24.913Z,18.20
2019-04-21T19:52:49.629Z,18.19
2019-04-21T19:55:14.120Z,18.15
2019-04-21T19:57:47.067Z,18.10
2019-04-21T20:00:19.870Z,18.04
2019-04-21T20:03:00.804Z,17.97
2019-04-21T20:05:54.816Z,17.89
2019-04-21T20:08:43.326Z,17.69
2019-04-21T20:11:30.789Z,17.48
2019-04-21T20:16:54.728Z,17.35
2019-04-21T20:19:24.806Z,17.34
2019-04-21T20:22:09.225Z,17.28
2019-04-21T20:24:56.417Z,17.29
2019-04-21T20:28:01.299Z,17.29
2019-04-21T20:30:47.186Z,17.38
2019-04-21T20:33:49.077Z,17.35
2019-04-21T20:36:23.888Z,17.30
2019-04-21T20:39:05.305Z,17.32
2019-04-21T20:41:40.855Z,17.43
2019-04-21T20:44:20.863Z,17.43
2019-04-21T20:46:51.602Z,17.38
2019-04-21T20:49:19.249Z,17.35
2019-04-21T20:52:14.318Z,17.32
2019-04-21T20:54:36.878Z,17.31
2019-04-21T20:57:11.118Z,17.29
2019-04-21T20:59:40.897Z,17.27
2019-04-21T21:02:20.028Z,17.29
2019-04-21T21:04:44.672Z,17.22
2019-04-21T21:07:40.023Z,17.20
2019-04-21T21:10:08.754Z,17.20
2019-04-21T21:12:43.186Z,17.09
2019-04-21T21:15:34.849Z,17.05
2019-04-21T21:18:35.591Z,17.02
2019-04-21T21:21:06.665Z,16.98
2019-04-21T21:23:43.953Z,16.89
2019-04-21T21:26:21.872Z,16.83
2019-04-21T21:29:06.808Z,16.70
2019-04-21T21:31:46.624Z,16.65
2019-04-21T21:34:27.878Z,16.74
2019-04-21T21:37:08.642Z,16.68
2019-04-21T21:39:36.316Z,16.41
2019-04-21T21:41:53.085Z,16.33
2019-04-21T21:44:26.222Z,16.29
2019-04-21T21:47:06.445Z,16.29
2019-04-21T21:49:46.762Z,16.31
2019-04-21T21:52:12.830Z,16.27
2019-04-21T21:54:40.106Z,16.24
2019-04-21T21:57:12.762Z,16.23
2019-04-21T21:59:45.412Z,16.22
2019-04-21T22:02:28.310Z,16.13
2019-04-21T22:05:01.133Z,16.09
2019-04-21T22:07:31.763Z,15.97
2019-04-21T22:10:04.403Z,15.73
2019-04-21T22:12:45.721Z,15.56
2019-04-21T22:15:18.650Z,15.50
2019-04-21T22:18:09.423Z,15.42
2019-04-21T22:20:37.362Z,15.39
2019-04-21T22:23:01.158Z,15.33
2019-04-21T22:25:41.982Z,15.30
2019-04-21T22:28:25.392Z,15.21
2019-04-21T22:30:58.752Z,15.23
2019-04-21T22:33:41.882Z,15.19
2019-04-21T22:36:23.822Z,15.12
2019-04-21T22:38:59.640Z,15.08
2019-04-21T22:41:28.215Z,15.00
2019-04-21T22:43:53.264Z,14.99
2019-04-21T22:46:26.240Z,14.83
2019-04-21T22:49:04.922Z,14.73
2019-04-21T22:51:38.384Z,14.70
2019-04-21T22:54:07.974Z,14.59
2019-04-21T22:56:50.392Z,14.55
2019-04-21T22:59:19.640Z,14.35
2019-04-21T23:01:50.391Z,14.25
2019-04-21T23:04:25.476Z,14.19
2019-04-21T23:07:02.162Z,14.20
2019-04-21T23:09:33.049Z,14.16
2019-04-21T23:12:05.245Z,14.08
2019-04-21T23:14:46.784Z,14.01
2019-04-21T23:20:17.295Z,13.94
2019-04-21T23:22:58.349Z,13.85
2019-04-21T23:25:22.334Z,13.86
2019-04-21T23:27:59.115Z,13.79
2019-04-21T23:30:39.215Z,13.85
2019-04-21T23:32:53.610Z,13.86
2019-04-21T23:35:31.979Z,13.87
2019-04-21T23:37:58.604Z,13.91
2019-04-21T23:40:31.448Z,13.84
2019-04-21T23:43:09.501Z,13.71
2019-04-21T23:45:40.900Z,13.73
2019-04-21T23:48:27.167Z,13.75
2019-04-21T23:50:53.967Z,13.75
2019-04-21T23:53:19.608Z,13.53
2019-04-21T23:55:54.923Z,13.47
2019-04-21T23:58:30.881Z,13.50
